createdAt,value
2024-02-27T00:04:23.192Z,92.60
2024-02-27T00:09:26.168Z,92.70
2024-02-27T00:14:28.137Z,92.80
2024-02-27T00:19:31.057Z,93.20
2024-02-27T00:24:33.513Z,93.30
2024-02-27T00:29:35.691Z,93.70
2024-02-27T00:34:38.386Z,93.50
2024-02-27T00:39:40.651Z,93.80
2024-02-27T00:44:48.627Z,94.50
2024-02-27T00:49:51.077Z,95.20
2024-02-27T00:54:53.792Z,95.30
2024-02-27T00:59:56.483Z,95.30
2024-02-27T01:04:58.981Z,95.40
2024-02-27T01:10:02.235Z,96.20
2024-02-27T01:15:05.105Z,96.50
2024-02-27T01:20:08.073Z,96.40
2024-02-27T01:25:13.538Z,97.20
2024-02-27T01:30:16.030Z,97.20
2024-02-27T01:35:19.996Z,97.40
2024-02-27T01:40:22.773Z,97.60
2024-02-27T01:45:26.435Z,98.00
2024-02-27T01:50:28.882Z,98.50
2024-02-27T01:55:30.868Z,98.50
2024-02-27T02:00:33.276Z,98.30
2024-02-27T02:05:36.128Z,98.60
2024-02-27T02:10:38.148Z,99.10
2024-02-27T02:15:40.315Z,99.30
2024-02-27T02:20:42.433Z,99.70
2024-02-27T02:25:45.199Z,99.90
2024-02-27T02:30:47.524Z,99.70
2024-02-27T02:35:49.984Z,99.80
2024-02-27T02:40:51.958Z,99.50
2024-02-27T02:45:54.248Z,99.10
2024-02-27T02:50:57.425Z,99.50
2024-02-27T02:55:59.720Z,99.90
2024-02-27T03:01:01.678Z,99.90
2024-02-27T03:06:03.763Z,99.90
2024-02-27T03:11:06.007Z,99.90
2024-02-27T03:16:09.303Z,99.90
2024-02-27T03:21:11.981Z,99.90
2024-02-27T03:26:17.737Z,99.90
2024-02-27T03:31:20.270Z,99.90
2024-02-27T03:36:22.785Z,99.90
2024-02-27T03:41:24.812Z,99.90
2024-02-27T03:46:26.997Z,99.90
2024-02-27T03:51:29.509Z,99.90
2024-02-27T03:56:32.111Z,99.90
2024-02-27T04:01:34.637Z,99.90
2024-02-27T04:06:37.358Z,99.90
2024-02-27T04:11:39.324Z,99.90
2024-02-27T04:16:43.563Z,99.90
2024-02-27T04:21:46.763Z,99.90
2024-02-27T04:26:49.212Z,99.90
2024-02-27T04:31:51.381Z,99.90
2024-02-27T04:36:53.286Z,99.90
2024-02-27T04:41:55.495Z,99.90
2024-02-27T04:46:57.420Z,99.90
2024-02-27T04:51:59.632Z,99.90
2024-02-27T04:57:01.628Z,99.90
2024-02-27T05:02:05.147Z,99.90
2024-02-27T05:07:07.235Z,99.90
2024-02-27T05:12:09.843Z,99.90
2024-02-27T05:17:11.804Z,99.90
2024-02-27T05:22:14.631Z,99.90
2024-02-27T05:27:19.003Z,99.90
2024-02-27T05:32:21.999Z,99.90
2024-02-27T05:37:23.889Z,99.90
2024-02-27T05:42:25.814Z,99.90
2024-02-27T05:47:28.001Z,99.90
2024-02-27T05:52:30.483Z,99.90
2024-02-27T05:57:33.186Z,99.90
2024-02-27T06:02:35.360Z,99.90
2024-02-27T06:07:38.340Z,99.90
2024-02-27T06:12:40.704Z,99.90
2024-02-27T06:17:42.722Z,99.90
2024-02-27T06:22:44.808Z,99.90
2024-02-27T06:27:49.472Z,99.90
2024-02-27T06:32:51.838Z,99.90
2024-02-27T06:37:53.791Z,99.90
2024-02-27T06:42:56.205Z,99.90
2024-02-27T06:47:58.278Z,99.90
2024-02-27T06:53:01.098Z,99.90
2024-02-27T06:58:03.934Z,99.90
2024-02-27T07:03:06.218Z,99.90
2024-02-27T07:08:10.999Z,98.40
2024-02-27T07:13:13.456Z,96.50
2024-02-27T07:18:17.714Z,95.90
2024-02-27T07:23:20.553Z,95.40
2024-02-27T07:28:27.300Z,93.20
2024-02-27T07:33:32.633Z,92.50
2024-02-27T07:38:36.061Z,91.50
2024-02-27T07:43:38.257Z,90.80
2024-02-27T07:48:46.780Z,89.30
2024-02-27T07:53:48.685Z,86.70
2024-02-27T07:58:50.658Z,85.00
2024-02-27T08:03:53.829Z,85.40
2024-02-27T08:08:56.925Z,84.50
2024-02-27T08:13:59.232Z,84.70
2024-02-27T08:19:06.107Z,84.10
2024-02-27T08:24:13.360Z,83.40
2024-02-27T08:29:16.638Z,82.50
2024-02-27T08:34:19.715Z,82.40
2024-02-27T08:39:22.136Z,83.40
2024-02-27T08:44:24.538Z,82.00
2024-02-27T08:49:26.857Z,83.50
2024-02-27T08:54:29.959Z,83.70
2024-02-27T08:59:32.387Z,83.90
2024-02-27T09:04:34.625Z,83.10
2024-02-27T09:09:37.184Z,83.30
2024-02-27T09:14:40.302Z,82.70
2024-02-27T09:19:42.393Z,82.80
2024-02-27T09:24:45.663Z,81.50
2024-02-27T09:29:47.607Z,80.10
2024-02-27T09:34:51.123Z,81.10
2024-02-27T09:39:59.533Z,81.50
2024-02-27T09:45:05.754Z,78.10
2024-02-27T09:50:09.515Z,78.20
2024-02-27T09:55:12.236Z,78.30
2024-02-27T10:00:16.601Z,79.10
2024-02-27T10:05:21.783Z,80.70
2024-02-27T10:10:24.174Z,77.60
2024-02-27T10:15:31.550Z,78.20
2024-02-27T10:20:34.800Z,79.30
2024-02-27T10:25:37.307Z,79.90
2024-02-27T10:30:40.688Z,80.80
2024-02-27T10:35:43.753Z,82.40
2024-02-27T10:40:46.175Z,83.50
2024-02-27T10:45:51.561Z,83.20
2024-02-27T10:50:56.064Z,85.00
2024-02-27T10:55:59.174Z,86.60
2024-02-27T11:01:03.917Z,87.30
2024-02-27T11:06:06.917Z,87.60
2024-02-27T11:11:09.142Z,87.10
2024-02-27T11:16:12.656Z,87.70
2024-02-27T11:21:15.833Z,87.60
2024-02-27T11:26:19.009Z,88.40
2024-02-27T11:31:22.524Z,88.50
2024-02-27T11:36:25.386Z,88.70
2024-02-27T11:41:28.494Z,89.00
2024-02-27T11:46:31.524Z,89.30
2024-02-27T11:51:37.447Z,89.90
2024-02-27T11:56:46.627Z,89.60
2024-02-27T12:02:07.565Z,89.80
2024-02-27T12:07:10.273Z,90.10
2024-02-27T12:12:12.669Z,90.70
2024-02-27T12:17:16.851Z,90.40
2024-02-27T12:22:18.912Z,91.00
2024-02-27T12:27:22.309Z,90.60
2024-02-27T12:32:25.585Z,90.50
2024-02-27T12:37:28.917Z,90.80
2024-02-27T12:42:35.135Z,90.90
2024-02-27T12:47:40.119Z,90.40
2024-02-27T12:52:52.658Z,89.90
2024-02-27T12:58:00.421Z,88.90
2024-02-27T13:03:04.495Z,89.70
2024-02-27T13:13:33.374Z,90.00
2024-02-27T13:18:38.906Z,88.50
2024-02-27T13:23:40.948Z,89.20
2024-02-27T13:28:43.149Z,90.00
2024-02-27T13:33:45.490Z,90.50
2024-02-27T13:38:47.571Z,90.90
2024-02-27T13:43:49.873Z,91.20
2024-02-27T13:48:53.541Z,91.70
2024-02-27T13:53:55.697Z,92.10
2024-02-27T13:58:57.645Z,93.00
2024-02-27T14:04:02.945Z,92.80
2024-02-27T14:09:05.565Z,92.80
2024-02-27T14:14:17.629Z,93.20
2024-02-27T14:19:23.546Z,93.50
2024-02-27T14:24:27.017Z,93.60
2024-02-27T14:29:41.472Z,93.90
2024-02-27T14:34:43.486Z,94.30
2024-02-27T14:39:46.029Z,94.80
2024-02-27T14:44:48.193Z,95.10
2024-02-27T14:49:50.462Z,95.40
2024-02-27T14:55:00.918Z,95.90
2024-02-27T15:00:06.406Z,96.40
2024-02-27T15:05:09.074Z,97.00
2024-02-27T15:10:11.026Z,97.70
2024-02-27T15:15:13.526Z,98.00
2024-02-27T15:20:16.157Z,98.30
2024-02-27T15:25:18.186Z,98.60
2024-02-27T15:30:22.194Z,99.00
2024-02-27T15:35:27.411Z,99.60
2024-02-27T15:40:29.731Z,99.90
2024-02-27T15:45:32.009Z,99.90
2024-02-27T15:50:34.037Z,99.90
2024-02-27T15:55:36.100Z,99.90
2024-02-27T16:00:39.256Z,99.90
2024-02-27T16:05:45.158Z,99.90
2024-02-27T16:10:47.250Z,99.90
2024-02-27T16:15:51.240Z,99.90
2024-02-27T16:20:54.604Z,99.90
2024-02-27T16:25:57.935Z,99.90
2024-02-27T16:31:00.292Z,99.90
2024-02-27T16:36:05.338Z,99.90
2024-02-27T16:41:08.293Z,99.90
2024-02-27T16:46:10.333Z,99.90
2024-02-27T16:51:12.306Z,99.90
2024-02-27T16:56:14.283Z,99.90
2024-02-27T17:01:16.494Z,99.90
2024-02-27T17:06:19.150Z,99.90
2024-02-27T17:11:21.594Z,99.90
2024-02-27T17:16:24.468Z,99.90
2024-02-27T17:21:26.881Z,99.90
2024-02-27T17:26:28.815Z,99.90
2024-02-27T17:31:31.161Z,99.90
2024-02-27T17:36:40.911Z,99.90
2024-02-27T17:41:43.609Z,99.90
2024-02-27T17:46:45.898Z,99.90
2024-02-27T17:51:47.896Z,99.90
2024-02-27T17:56:50.871Z,99.90
2024-02-27T18:01:53.676Z,99.90
2024-02-27T18:06:57.952Z,99.90
2024-02-27T18:12:00.285Z,99.90
2024-02-27T18:17:02.616Z,99.90
2024-02-27T18:22:05.536Z,99.90
2024-02-27T18:27:08.017Z,99.90
2024-02-27T18:32:10.144Z,99.90
2024-02-27T18:37:12.553Z,99.90
2024-02-27T18:42:15.036Z,99.90
2024-02-27T18:47:19.014Z,99.90
2024-02-27T18:52:21.272Z,99.90
2024-02-27T18:57:23.301Z,99.90
2024-02-27T19:02:25.601Z,99.90
2024-02-27T19:07:30.385Z,99.90
2024-02-27T19:12:32.673Z,99.90
2024-02-27T19:17:34.953Z,99.90
2024-02-27T19:22:37.552Z,99.90
2024-02-27T19:27:39.866Z,99.90
2024-02-27T19:32:42.467Z,99.90
2024-02-27T19:37:44.888Z,99.90
2024-02-27T19:42:48.655Z,99.90
2024-02-27T19:47:50.856Z,99.90
2024-02-27T19:52:52.955Z,99.90
2024-02-27T19:57:56.636Z,99.90
2024-02-27T20:02:58.686Z,99.90
2024-02-27T20:08:01.869Z,99.90
2024-02-27T20:13:05.770Z,99.90
2024-02-27T20:18:09.460Z,99.90
2024-02-27T20:23:11.972Z,99.90
2024-02-27T20:28:13.972Z,99.90
2024-02-27T20:33:16.344Z,99.90
2024-02-27T20:38:19.146Z,99.90
2024-02-27T20:43:21.175Z,99.90
2024-02-27T20:48:23.433Z,99.90
2024-02-27T20:53:25.587Z,99.90
2024-02-27T20:58:27.637Z,99.90
2024-02-27T21:03:30.027Z,99.90
2024-02-27T21:08:32.080Z,99.90
2024-02-27T21:13:34.049Z,99.90
2024-02-27T21:18:36.138Z,99.90
2024-02-27T21:23:39.455Z,99.90
2024-02-27T21:28:41.387Z,99.90
2024-02-27T21:33:43.548Z,99.90
2024-02-27T21:38:45.560Z,99.90
2024-02-27T21:43:48.854Z,99.90
2024-02-27T21:48:50.944Z,99.90
2024-02-27T21:53:53.261Z,99.90
2024-02-27T21:58:56.016Z,99.90
2024-02-27T22:03:58.287Z,99.90
2024-02-27T22:09:00.531Z,99.90
2024-02-27T22:14:03.137Z,99.90
2024-02-27T22:19:05.907Z,99.90
2024-02-27T22:24:08.453Z,99.90
2024-02-27T22:29:10.842Z,99.90
2024-02-27T22:34:14.291Z,99.90
2024-02-27T22:39:16.310Z,99.90
2024-02-27T22:44:18.254Z,99.90
2024-02-27T22:49:20.476Z,99.90
2024-02-27T22:54:22.424Z,99.90
2024-02-27T22:59:24.721Z,99.90
2024-02-27T23:04:26.693Z,99.90
2024-02-27T23:09:28.965Z,99.90
2024-02-27T23:14:30.930Z,99.90
2024-02-27T23:19:34.153Z,99.90
2024-02-27T23:24:36.454Z,99.90
2024-02-27T23:29:38.454Z,99.90
2024-02-27T23:34:40.676Z,99.90
2024-02-27T23:39:42.587Z,99.90
2024-02-27T23:44:45.212Z,99.90
2024-02-27T23:49:47.311Z,99.90
2024-02-27T23:54:49.281Z,99.90
2024-02-27T23:59:52.775Z,99.90
